Time;durP1;ratioP1;P1;durP2;ratioP2;P2;SDS_P1;SDS_P2;PMS_P1;PMS_P2;Temp;Humidity;BMP_temperature;BMP_pressure;BME280_temperature;BME280_humidity;BME280_pressure;Samples;Min_cycle;Max_cycle;Signal;HPM_P1;HPM_P2
2022/02/26 00:00:16;;;;;;;8.03;5.47;;;1.00;99.90;;;;;;5000405;28;20507;-55
2022/02/26 00:02:42;;;;;;;13.73;5.80;;;0.90;99.90;;;;;;4992330;28;20187;-55
2022/02/26 00:05:08;;;;;;;9.03;6.10;;;0.90;99.90;;;;;;4992635;28;20431;-54
2022/02/26 00:07:33;;;;;;;9.77;6.30;;;0.90;99.90;;;;;;4992635;28;20691;-55
2022/02/26 00:10:00;;;;;;;12.00;7.70;;;0.90;99.90;;;;;;4990475;28;20449;-54
2022/02/26 00:12:26;;;;;;;11.63;7.70;;;0.90;99.90;;;;;;4988212;28;20277;-54
2022/02/26 00:14:51;;;;;;;13.33;7.93;;;0.90;99.90;;;;;;4983321;28;20440;-55
2022/02/26 00:17:17;;;;;;;10.00;7.07;;;0.80;99.90;;;;;;4988031;28;20199;-54
2022/02/26 00:19:42;;;;;;;13.13;7.20;;;0.90;99.90;;;;;;4985748;28;20206;-55
2022/02/26 00:22:08;;;;;;;14.93;7.07;;;0.80;99.90;;;;;;4972748;28;20185;-55
2022/02/26 00:24:34;;;;;;;9.27;6.83;;;0.80;99.90;;;;;;4990139;28;20187;-55
2022/02/26 00:26:59;;;;;;;13.07;6.90;;;0.90;99.90;;;;;;4991641;28;20181;-55
2022/02/26 00:29:26;;;;;;;13.23;6.63;;;0.90;99.90;;;;;;4992129;28;20211;-56
2022/02/26 00:31:52;;;;;;;10.97;7.27;;;0.90;99.90;;;;;;4991714;28;20211;-55
2022/02/26 00:34:18;;;;;;;14.40;6.50;;;0.90;99.90;;;;;;4984996;28;20459;-55
2022/02/26 00:36:44;;;;;;;12.53;6.67;;;0.90;99.90;;;;;;4973612;28;20488;-54
2022/02/26 00:39:10;;;;;;;12.13;6.53;;;1.00;99.90;;;;;;4989075;28;20209;-54
2022/02/26 00:41:36;;;;;;;8.30;5.60;;;1.00;99.90;;;;;;4992743;28;20439;-54
2022/02/26 00:44:03;;;;;;;11.90;6.10;;;1.00;99.90;;;;;;4992134;28;20266;-54
2022/02/26 00:46:28;;;;;;;10.80;6.00;;;1.00;99.90;;;;;;4992307;28;20445;-54
2022/02/26 00:51:38;;;;;;;9.90;5.67;;;1.10;99.90;;;;;;4991047;28;20213;-54
2022/02/26 00:54:04;;;;;;;12.00;5.67;;;1.10;99.90;;;;;;4980426;28;20498;-54
2022/02/26 00:56:30;;;;;;;10.57;5.90;;;1.10;99.90;;;;;;4991303;28;20427;-55
2022/02/26 00:58:56;;;;;;;14.70;6.80;;;1.10;99.90;;;;;;4992745;28;20196;-54
2022/02/26 01:01:22;;;;;;;9.27;5.37;;;1.10;99.90;;;;;;4979575;28;20759;-55
2022/02/26 01:03:48;;;;;;;8.90;5.13;;;1.20;99.90;;;;;;4992128;28;20914;-55
2022/02/26 01:06:14;;;;;;;10.30;6.43;;;1.20;99.90;;;;;;4991795;28;20520;-55
2022/02/26 01:08:40;;;;;;;8.20;6.10;;;1.20;99.90;;;;;;4991806;28;20434;-56
2022/02/26 01:11:06;;;;;;;11.70;5.57;;;1.20;99.90;;;;;;4988053;28;20184;-54
2022/02/26 01:13:32;;;;;;;10.27;5.57;;;1.20;99.90;;;;;;4998814;28;20582;-54
2022/02/26 01:15:58;;;;;;;9.00;5.10;;;1.20;99.90;;;;;;4992695;28;20652;-54
2022/02/26 01:18:24;;;;;;;8.07;5.50;;;1.30;99.90;;;;;;4991598;28;20537;-56
2022/02/26 01:20:50;;;;;;;6.97;5.77;;;1.20;99.90;;;;;;4988104;28;20505;-57
2022/02/26 01:23:16;;;;;;;8.87;6.23;;;1.30;99.90;;;;;;4984158;28;20185;-54
2022/02/26 01:25:42;;;;;;;11.43;6.17;;;1.30;99.90;;;;;;4988411;28;20193;-54
2022/02/26 01:28:07;;;;;;;12.30;6.03;;;1.30;99.90;;;;;;4972535;28;20184;-55
2022/02/26 01:30:33;;;;;;;14.57;6.53;;;1.30;99.90;;;;;;4972058;28;20687;-54
2022/02/26 01:32:59;;;;;;;8.67;5.70;;;1.30;99.90;;;;;;4989305;28;20286;-54
2022/02/26 01:35:24;;;;;;;12.70;6.33;;;1.40;99.90;;;;;;4989722;28;20181;-53
2022/02/26 01:37:50;;;;;;;9.33;5.83;;;1.40;99.90;;;;;;4993352;28;20173;-53
2022/02/26 01:40:16;;;;;;;8.47;6.03;;;1.40;99.90;;;;;;4989862;28;20220;-54
2022/02/26 01:42:42;;;;;;;9.87;6.07;;;1.40;99.90;;;;;;4992642;28;20185;-54
2022/02/26 01:45:16;;;;;;;16.93;6.40;;;1.40;99.90;;;;;;4996235;28;20577;-54
2022/02/26 01:47:43;;;;;;;8.27;5.63;;;1.40;99.90;;;;;;5002089;28;20414;-55
2022/02/26 01:50:11;;;;;;;10.10;5.50;;;1.40;99.90;;;;;;4989930;28;21217;-55
2022/02/26 01:52:38;;;;;;;10.00;5.83;;;1.40;99.90;;;;;;4990818;28;20994;-54
2022/02/26 01:55:04;;;;;;;7.33;5.00;;;1.40;99.90;;;;;;4992445;28;20966;-55
2022/02/26 01:57:30;;;;;;;8.43;4.03;;;1.40;99.90;;;;;;4991286;28;20431;-55
2022/02/26 01:59:55;;;;;;;7.23;4.37;;;1.40;99.90;;;;;;4987524;28;20459;-55
2022/02/26 02:02:21;;;;;;;13.83;5.73;;;1.30;99.90;;;;;;4983161;28;20316;-55
2022/02/26 02:04:47;;;;;;;15.20;5.50;;;1.30;99.90;;;;;;4987449;28;20188;-54
2022/02/26 02:07:13;;;;;;;7.03;4.70;;;1.30;99.90;;;;;;4990584;28;20599;-55
2022/02/26 02:09:39;;;;;;;8.53;4.70;;;1.30;99.90;;;;;;4989781;28;20201;-55
2022/02/26 02:12:06;;;;;;;5.07;4.00;;;1.30;99.90;;;;;;4988463;28;20206;-55
2022/02/26 02:14:31;;;;;;;11.33;4.43;;;1.30;99.90;;;;;;4989813;28;20457;-55
2022/02/26 02:16:57;;;;;;;13.70;4.97;;;1.30;99.90;;;;;;4990367;28;20415;-55
2022/02/26 02:19:25;;;;;;;7.93;4.70;;;1.30;99.90;;;;;;4986758;28;20195;-56
2022/02/26 02:21:50;;;;;;;9.80;4.77;;;1.30;99.90;;;;;;4988238;28;20174;-54
2022/02/26 02:24:16;;;;;;;12.63;4.53;;;1.30;99.90;;;;;;4987912;28;20766;-55
2022/02/26 02:26:44;;;;;;;11.03;4.77;;;1.30;99.90;;;;;;4988718;28;20673;-54
2022/02/26 02:29:10;;;;;;;10.57;4.80;;;1.30;99.90;;;;;;4990209;28;20201;-54
2022/02/26 02:31:36;;;;;;;9.27;5.33;;;1.30;99.90;;;;;;4988119;28;20526;-55
2022/02/26 02:34:02;;;;;;;13.53;5.13;;;1.40;99.90;;;;;;4988639;28;20853;-54
2022/02/26 02:36:28;;;;;;;5.70;4.30;;;1.30;99.90;;;;;;4985810;28;20414;-55
2022/02/26 02:38:54;;;;;;;6.57;4.40;;;1.40;99.90;;;;;;4989379;28;20824;-55
2022/02/26 02:41:20;;;;;;;7.43;4.57;;;1.40;99.90;;;;;;4985103;28;20270;-55
2022/02/26 02:43:46;;;;;;;6.63;4.40;;;1.30;99.90;;;;;;4984529;28;20931;-54
2022/02/26 02:46:11;;;;;;;13.60;4.90;;;1.30;99.90;;;;;;4985689;28;20272;-55
2022/02/26 02:48:38;;;;;;;6.53;5.20;;;1.30;99.90;;;;;;4998108;28;20187;-56
2022/02/26 02:51:05;;;;;;;7.13;4.57;;;1.30;99.90;;;;;;4985775;28;20207;-55
2022/02/26 02:53:31;;;;;;;8.93;4.50;;;1.30;99.90;;;;;;4989105;28;20437;-56
2022/02/26 02:55:57;;;;;;;9.37;5.20;;;1.30;99.90;;;;;;4988405;28;20426;-55
2022/02/26 02:58:28;;;;;;;9.53;5.27;;;1.30;99.90;;;;;;4981195;28;20802;-56
2022/02/26 03:00:56;;;;;;;7.20;4.73;;;1.30;99.90;;;;;;4971608;28;20423;-55
2022/02/26 03:03:22;;;;;;;10.47;4.57;;;1.20;99.90;;;;;;4979210;28;20972;-53
2022/02/26 03:05:47;;;;;;;8.20;4.90;;;1.20;99.90;;;;;;4991008;28;20419;-55
2022/02/26 03:08:14;;;;;;;8.07;4.27;;;1.20;99.90;;;;;;4988937;28;20332;-55
2022/02/26 03:10:39;;;;;;;11.47;4.70;;;1.20;99.90;;;;;;4988852;28;20192;-54
2022/02/26 03:13:05;;;;;;;8.70;5.33;;;1.20;99.90;;;;;;4991938;28;20547;-56
2022/02/26 03:15:32;;;;;;;7.10;4.73;;;1.10;99.90;;;;;;5003541;28;20281;-55
2022/02/26 03:17:58;;;;;;;9.23;4.20;;;1.10;99.90;;;;;;4971146;28;21041;-55
2022/02/26 03:20:24;;;;;;;8.50;4.90;;;1.00;99.90;;;;;;4988602;28;20484;-55
2022/02/26 03:22:50;;;;;;;8.00;4.17;;;1.00;99.90;;;;;;4989290;28;20475;-60
2022/02/26 03:25:16;;;;;;;9.43;5.10;;;1.00;99.90;;;;;;4989396;28;20179;-54
2022/02/26 03:27:43;;;;;;;10.13;4.93;;;0.90;99.90;;;;;;4988959;28;20239;-54
2022/02/26 03:30:10;;;;;;;7.00;4.50;;;0.90;99.90;;;;;;4988576;28;20451;-53
2022/02/26 03:32:36;;;;;;;8.50;4.50;;;0.90;99.90;;;;;;5006360;28;20548;-53
2022/02/26 03:35:03;;;;;;;14.50;5.50;;;0.90;99.90;;;;;;4988050;28;20442;-53
2022/02/26 03:37:29;;;;;;;9.67;6.20;;;0.90;99.90;;;;;;4988977;28;20454;-54
2022/02/26 03:39:56;;;;;;;13.00;5.47;;;0.90;99.90;;;;;;4988791;28;20465;-54
2022/02/26 03:42:21;;;;;;;9.90;5.27;;;0.90;99.90;;;;;;4988730;28;20818;-54
2022/02/26 03:44:48;;;;;;;11.13;5.70;;;0.90;99.90;;;;;;4991882;28;20425;-54
2022/02/26 03:47:18;;;;;;;14.30;5.87;;;0.90;99.90;;;;;;4989811;28;20185;-54
2022/02/26 03:49:46;;;;;;;11.40;5.33;;;0.90;99.90;;;;;;4992436;28;20930;-53
2022/02/26 03:52:12;;;;;;;6.63;4.73;;;0.90;99.90;;;;;;4987142;28;20466;-54
2022/02/26 03:54:37;;;;;;;6.30;4.67;;;0.90;99.90;;;;;;4973551;28;20407;-53
2022/02/26 03:57:04;;;;;;;14.87;5.20;;;0.90;99.90;;;;;;4984715;28;20207;-53
2022/02/26 03:59:30;;;;;;;7.90;4.33;;;0.90;99.90;;;;;;4987762;28;20909;-52
2022/02/26 04:01:56;;;;;;;10.30;5.20;;;0.90;99.90;;;;;;4987607;28;20210;-53
2022/02/26 04:04:21;;;;;;;8.37;5.00;;;0.90;99.90;;;;;;4991921;28;20260;-52
2022/02/26 04:06:50;;;;;;;8.23;5.17;;;0.90;99.90;;;;;;4987676;28;20193;-54
2022/02/26 04:09:15;;;;;;;9.83;5.43;;;0.90;99.90;;;;;;4992658;28;20228;-55
2022/02/26 04:11:41;;;;;;;11.40;5.93;;;0.90;99.90;;;;;;4991587;28;20512;-53
2022/02/26 04:14:07;;;;;;;7.93;5.30;;;0.90;99.90;;;;;;4987588;28;20206;-53
2022/02/26 04:16:33;;;;;;;16.27;5.20;;;0.90;99.90;;;;;;4990012;28;20180;-53
2022/02/26 04:18:58;;;;;;;7.40;5.00;;;0.90;99.90;;;;;;4992095;28;20246;-54
2022/02/26 04:21:25;;;;;;;9.50;5.30;;;1.00;99.90;;;;;;4992432;28;20442;-54
2022/02/26 04:23:51;;;;;;;10.67;4.20;;;1.00;99.90;;;;;;4996604;28;20592;-55
2022/02/26 04:26:17;;;;;;;8.13;5.33;;;1.00;99.90;;;;;;4996379;28;20439;-54
2022/02/26 04:28:43;;;;;;;11.60;5.00;;;1.00;99.90;;;;;;4985556;28;20502;-54
2022/02/26 04:31:09;;;;;;;10.30;5.17;;;1.00;99.90;;;;;;4992470;28;20203;-54
2022/02/26 04:33:34;;;;;;;8.50;5.07;;;1.10;99.90;;;;;;4975558;28;20191;-55
2022/02/26 04:36:00;;;;;;;8.37;5.10;;;1.00;99.90;;;;;;4980951;28;20443;-56
2022/02/26 04:38:29;;;;;;;11.50;5.93;;;1.00;99.90;;;;;;4982442;28;20181;-54
2022/02/26 04:40:56;;;;;;;11.87;6.67;;;1.00;99.90;;;;;;5013050;22;20503;-58
2022/02/26 04:43:22;;;;;;;8.53;5.80;;;1.00;99.90;;;;;;4994857;28;20451;-60
2022/02/26 04:45:47;;;;;;;11.47;6.70;;;1.00;99.90;;;;;;4991396;28;20866;-59
2022/02/26 04:48:13;;;;;;;8.90;6.20;;;1.00;99.90;;;;;;4991736;28;20191;-60
2022/02/26 04:50:39;;;;;;;9.13;5.70;;;1.00;99.90;;;;;;4990696;28;20204;-58
2022/02/26 04:53:05;;;;;;;12.40;6.67;;;1.00;99.90;;;;;;5009169;28;20206;-58
2022/02/26 04:55:30;;;;;;;8.67;5.70;;;1.00;99.90;;;;;;4993492;28;20214;-58
2022/02/26 04:57:56;;;;;;;13.67;4.90;;;1.10;99.90;;;;;;4992530;28;20267;-57
2022/02/26 05:00:21;;;;;;;10.50;5.17;;;1.10;99.90;;;;;;4982859;28;20200;-58
2022/02/26 05:02:47;;;;;;;8.50;4.83;;;1.10;99.90;;;;;;4990777;28;20210;-59
2022/02/26 05:05:13;;;;;;;10.60;5.13;;;1.10;99.90;;;;;;5001703;28;20189;-57
2022/02/26 05:07:38;;;;;;;8.77;5.27;;;1.10;99.90;;;;;;5007152;28;20426;-58
2022/02/26 05:10:05;;;;;;;8.83;5.00;;;1.10;99.90;;;;;;5004545;28;20304;-58
2022/02/26 05:12:31;;;;;;;8.00;5.10;;;1.10;99.90;;;;;;5001269;28;20766;-58
2022/02/26 05:14:56;;;;;;;8.33;5.33;;;1.10;99.90;;;;;;4998098;28;20501;-58
2022/02/26 05:17:22;;;;;;;10.70;5.33;;;1.10;99.90;;;;;;5007996;28;20178;-60
2022/02/26 05:19:48;;;;;;;9.00;5.67;;;1.10;99.90;;;;;;4998372;28;20200;-58
2022/02/26 05:22:13;;;;;;;9.87;5.23;;;1.10;99.90;;;;;;5010943;28;20172;-59
2022/02/26 05:24:39;;;;;;;9.00;5.30;;;1.10;99.90;;;;;;5010885;28;20179;-58
2022/02/26 05:27:04;;;;;;;10.13;5.83;;;1.20;99.90;;;;;;5007550;28;20183;-58
2022/02/26 05:29:30;;;;;;;11.17;6.07;;;1.10;99.90;;;;;;5003484;28;20195;-59
2022/02/26 05:31:56;;;;;;;10.60;5.43;;;1.10;99.90;;;;;;4989646;28;20592;-58
2022/02/26 05:34:21;;;;;;;13.20;5.53;;;1.10;99.90;;;;;;4993377;28;20179;-59
2022/02/26 05:36:47;;;;;;;7.37;5.50;;;1.10;99.90;;;;;;5007554;28;20182;-58
2022/02/26 05:39:13;;;;;;;9.07;5.83;;;1.10;99.90;;;;;;4994757;28;20242;-58
2022/02/26 05:41:39;;;;;;;11.20;5.67;;;1.10;99.90;;;;;;4991877;28;20317;-59
2022/02/26 05:44:05;;;;;;;9.77;6.10;;;1.10;99.90;;;;;;5005514;28;20316;-58
2022/02/26 05:46:33;;;;;;;8.90;5.13;;;1.10;99.90;;;;;;4999430;28;20453;-58
2022/02/26 05:48:59;;;;;;;10.47;6.00;;;1.10;99.90;;;;;;5004315;28;20427;-58
2022/02/26 05:51:24;;;;;;;8.00;6.00;;;1.10;99.90;;;;;;4990651;28;20475;-59
2022/02/26 05:53:50;;;;;;;11.83;6.03;;;1.10;99.90;;;;;;4990396;28;20179;-58
2022/02/26 05:56:16;;;;;;;9.37;5.73;;;1.10;99.90;;;;;;4995095;28;20633;-59
2022/02/26 05:58:41;;;;;;;14.03;6.67;;;1.20;99.90;;;;;;5005978;28;20625;-58
2022/02/26 06:01:07;;;;;;;10.00;6.00;;;1.10;99.90;;;;;;4997983;28;20267;-58
2022/02/26 06:03:33;;;;;;;21.33;6.40;;;1.10;99.90;;;;;;4996595;28;20184;-58
2022/02/26 06:05:58;;;;;;;8.20;6.23;;;1.20;99.90;;;;;;4989999;28;20188;-59
2022/02/26 06:08:24;;;;;;;9.20;5.00;;;1.20;99.90;;;;;;4987630;28;20195;-57
2022/02/26 06:10:49;;;;;;;12.10;6.70;;;1.20;99.90;;;;;;4991070;28;20206;-59
2022/02/26 06:13:15;;;;;;;17.23;6.80;;;1.20;99.90;;;;;;4997297;28;20202;-58
2022/02/26 06:15:41;;;;;;;14.00;6.57;;;1.20;99.90;;;;;;4992782;28;20169;-58
2022/02/26 06:18:06;;;;;;;11.30;6.30;;;1.20;99.90;;;;;;4997812;28;20672;-58
2022/02/26 06:20:32;;;;;;;13.07;6.50;;;1.20;99.90;;;;;;4989159;28;20207;-58
2022/02/26 06:22:58;;;;;;;14.00;6.97;;;1.20;99.90;;;;;;4996096;28;20656;-57
2022/02/26 06:25:23;;;;;;;11.67;6.70;;;1.20;99.90;;;;;;5001536;28;20176;-58
2022/02/26 06:27:50;;;;;;;14.50;6.20;;;1.20;99.90;;;;;;5021386;28;20179;-58
2022/02/26 06:30:15;;;;;;;13.70;6.50;;;1.20;99.90;;;;;;4991500;28;20210;-58
2022/02/26 06:32:42;;;;;;;13.60;7.30;;;1.20;99.90;;;;;;4993390;28;20474;-58
2022/02/26 06:35:09;;;;;;;15.33;7.67;;;1.20;99.90;;;;;;4995049;28;20221;-58
2022/02/26 06:37:35;;;;;;;10.60;7.13;;;1.20;99.90;;;;;;4989726;28;20490;-58
2022/02/26 06:40:01;;;;;;;10.80;6.30;;;1.20;99.90;;;;;;4989835;28;20509;-58
2022/02/26 06:42:27;;;;;;;12.90;6.40;;;1.20;99.90;;;;;;4992953;28;20432;-59
2022/02/26 06:44:52;;;;;;;11.67;6.90;;;1.30;99.90;;;;;;4990188;28;20435;-58
2022/02/26 06:47:18;;;;;;;11.23;6.47;;;1.20;99.90;;;;;;4991021;28;20181;-58
2022/02/26 06:49:44;;;;;;;15.97;6.73;;;1.30;99.90;;;;;;4989829;28;20286;-58
2022/02/26 06:52:10;;;;;;;11.03;6.43;;;1.30;99.90;;;;;;4989518;28;20270;-59
2022/02/26 06:54:37;;;;;;;12.43;6.53;;;1.30;99.90;;;;;;4990097;28;20735;-58
2022/02/26 06:57:03;;;;;;;11.43;6.27;;;1.30;99.90;;;;;;4990744;28;20962;-59
2022/02/26 06:59:29;;;;;;;11.43;6.70;;;1.30;99.90;;;;;;4990252;28;20423;-59
2022/02/26 07:01:55;;;;;;;12.60;6.57;;;1.30;99.90;;;;;;4990025;28;20428;-58
2022/02/26 07:04:21;;;;;;;11.83;7.03;;;1.30;99.90;;;;;;4997591;28;20188;-58
2022/02/26 07:06:47;;;;;;;15.30;7.53;;;1.30;99.90;;;;;;4990417;28;20227;-59
2022/02/26 07:09:18;;;;;;;10.90;7.90;;;1.30;99.90;;;;;;4988628;28;21019;-58
2022/02/26 07:11:45;;;;;;;14.53;8.70;;;1.30;99.90;;;;;;4988576;28;20469;-59
2022/02/26 07:14:12;;;;;;;15.53;8.43;;;1.30;99.90;;;;;;5001614;28;20441;-58
2022/02/26 07:16:38;;;;;;;19.87;8.00;;;1.30;99.90;;;;;;5010229;28;20417;-59
2022/02/26 07:19:05;;;;;;;15.80;8.07;;;1.30;99.90;;;;;;5015211;28;20424;-58
2022/02/26 07:21:31;;;;;;;19.27;8.57;;;1.40;99.90;;;;;;4994182;28;20684;-58
2022/02/26 07:23:58;;;;;;;19.73;10.00;;;1.40;99.90;;;;;;4989978;28;20451;-58
2022/02/26 07:26:25;;;;;;;18.43;8.83;;;1.50;99.90;;;;;;4994316;28;20460;-58
2022/02/26 07:28:50;;;;;;;19.27;9.87;;;1.50;99.90;;;;;;5001606;28;21002;-57
2022/02/26 07:31:16;;;;;;;15.93;9.40;;;1.50;99.90;;;;;;5010633;28;20537;-58
2022/02/26 07:33:42;;;;;;;21.10;10.77;;;1.50;99.90;;;;;;5000084;28;20238;-58
2022/02/26 07:36:08;;;;;;;16.70;7.50;;;1.60;99.90;;;;;;4996437;28;20171;-58
2022/02/26 07:38:34;;;;;;;11.60;7.10;;;1.60;99.90;;;;;;4993092;28;20259;-59
2022/02/26 07:41:00;;;;;;;10.70;7.23;;;1.60;99.90;;;;;;4995305;28;20475;-59
2022/02/26 07:43:26;;;;;;;17.43;9.03;;;1.60;99.90;;;;;;5005183;28;20447;-58
2022/02/26 07:45:52;;;;;;;13.80;8.70;;;1.70;99.90;;;;;;4997256;28;20448;-59
2022/02/26 07:48:18;;;;;;;15.67;8.70;;;1.70;99.90;;;;;;4996059;28;20187;-59
2022/02/26 07:50:43;;;;;;;16.20;9.10;;;1.80;99.90;;;;;;4992019;28;20226;-58
2022/02/26 07:53:09;;;;;;;13.47;8.30;;;1.80;99.90;;;;;;4997714;28;20998;-58
2022/02/26 07:55:37;;;;;;;26.37;10.90;;;1.90;99.90;;;;;;5003184;28;20219;-58
2022/02/26 07:58:04;;;;;;;14.23;8.40;;;1.90;99.90;;;;;;4992668;28;20633;-58
2022/02/26 08:00:30;;;;;;;14.50;8.93;;;1.90;99.90;;;;;;4993989;28;20443;-59
2022/02/26 08:02:56;;;;;;;19.60;8.60;;;2.00;99.90;;;;;;4992423;28;20428;-59
2022/02/26 08:05:22;;;;;;;19.13;9.87;;;2.00;99.90;;;;;;4992241;28;20499;-59
2022/02/26 08:07:47;;;;;;;13.97;6.97;;;2.10;99.90;;;;;;4992864;28;20980;-58
2022/02/26 08:10:14;;;;;;;13.53;7.80;;;2.10;99.90;;;;;;4991214;28;20216;-59
2022/02/26 08:12:42;;;;;;;14.53;8.23;;;2.20;99.90;;;;;;5003893;28;20700;-59
2022/02/26 08:15:08;;;;;;;13.90;5.90;;;2.20;99.90;;;;;;5002160;28;20424;-58
2022/02/26 08:17:34;;;;;;;9.73;5.50;;;2.20;99.90;;;;;;4985829;28;20930;-60
2022/02/26 08:20:00;;;;;;;9.10;5.47;;;2.20;99.90;;;;;;4995487;28;20463;-59
2022/02/26 08:22:25;;;;;;;11.30;5.27;;;2.20;99.90;;;;;;4988532;28;20711;-59
2022/02/26 08:24:51;;;;;;;12.40;5.40;;;2.10;99.90;;;;;;4988038;28;20624;-63
2022/02/26 08:27:17;;;;;;;6.47;4.70;;;2.10;99.90;;;;;;4987714;28;20245;-60
2022/02/26 08:29:42;;;;;;;12.50;5.20;;;2.10;99.90;;;;;;4981987;28;20197;-61
2022/02/26 08:32:08;;;;;;;12.63;5.47;;;2.20;99.90;;;;;;4989800;28;20552;-61
2022/02/26 08:34:34;;;;;;;7.97;4.70;;;2.30;99.90;;;;;;4990477;28;20189;-60
2022/02/26 08:37:00;;;;;;;7.17;4.90;;;2.50;99.90;;;;;;4987626;28;20272;-60
2022/02/26 08:39:29;;;;;;;5.80;4.50;;;2.70;99.90;;;;;;4989900;28;20174;-60
2022/02/26 08:41:55;;;;;;;6.50;3.80;;;2.80;99.50;;;;;;4985300;28;20447;-61
2022/02/26 08:44:21;;;;;;;8.07;4.30;;;3.00;97.20;;;;;;4988883;28;20435;-61
2022/02/26 08:46:46;;;;;;;8.40;4.23;;;3.10;94.90;;;;;;4992413;28;20256;-60
2022/02/26 08:49:12;;;;;;;7.80;4.60;;;3.10;93.00;;;;;;4993194;28;20192;-60
2022/02/26 08:51:38;;;;;;;7.30;4.00;;;3.10;89.60;;;;;;4988272;28;20575;-60
2022/02/26 08:54:03;;;;;;;16.47;5.70;;;3.10;88.70;;;;;;4990000;28;20181;-60
2022/02/26 08:56:29;;;;;;;10.53;4.37;;;3.10;89.20;;;;;;4988490;28;20676;-61
2022/02/26 08:58:55;;;;;;;12.83;4.10;;;3.10;90.00;;;;;;4984888;28;20198;-59
2022/02/26 09:01:21;;;;;;;7.87;3.60;;;3.10;87.40;;;;;;4985074;28;20204;-60
2022/02/26 09:03:47;;;;;;;9.10;4.00;;;3.10;85.00;;;;;;4978536;28;20684;-61
2022/02/26 09:06:13;;;;;;;7.90;3.83;;;3.10;82.30;;;;;;4988769;28;20432;-61
2022/02/26 09:08:39;;;;;;;9.60;4.03;;;3.20;79.90;;;;;;4986369;28;20437;-59
2022/02/26 09:11:06;;;;;;;6.80;3.50;;;3.20;80.10;;;;;;4984376;28;20209;-59
2022/02/26 09:13:36;;;;;;;6.13;3.47;;;3.30;77.70;;;;;;4985895;28;20209;-60
2022/02/26 09:16:02;;;;;;;6.20;3.70;;;3.40;76.20;;;;;;4983667;28;20458;-60
2022/02/26 09:18:28;;;;;;;10.33;3.10;;;3.40;74.80;;;;;;4985075;28;20515;-61
2022/02/26 09:20:54;;;;;;;10.73;2.80;;;3.40;72.70;;;;;;4983370;28;20947;-62
2022/02/26 09:23:20;;;;;;;6.20;3.57;;;3.40;71.10;;;;;;4987461;28;20521;-60
2022/02/26 09:25:45;;;;;;;4.63;2.93;;;3.40;69.60;;;;;;4987249;28;20277;-61
2022/02/26 09:28:11;;;;;;;9.60;3.67;;;3.40;70.00;;;;;;4989856;28;20192;-60
2022/02/26 09:30:37;;;;;;;6.17;3.60;;;3.50;69.10;;;;;;4988322;28;20203;-59
2022/02/26 09:33:04;;;;;;;5.80;2.93;;;3.60;69.10;;;;;;4990448;28;20215;-60
2022/02/26 09:35:29;;;;;;;14.00;3.43;;;3.60;68.80;;;;;;4984176;28;20757;-61
2022/02/26 09:37:55;;;;;;;10.90;3.50;;;3.60;68.00;;;;;;4986142;28;20519;-61
2022/02/26 09:40:21;;;;;;;13.63;3.70;;;3.70;69.10;;;;;;4998407;28;20240;-60
2022/02/26 09:42:47;;;;;;;6.80;3.40;;;3.80;70.20;;;;;;4986399;28;20186;-60
2022/02/26 09:45:13;;;;;;;11.40;4.00;;;4.00;68.30;;;;;;4987777;28;20436;-60
2022/02/26 09:47:39;;;;;;;4.23;3.10;;;4.10;67.80;;;;;;4988014;28;20255;-61
2022/02/26 09:50:06;;;;;;;6.90;3.20;;;4.20;65.80;;;;;;4983354;28;20723;-59
2022/02/26 09:52:37;;;;;;;7.00;3.40;;;4.20;63.60;;;;;;5001349;28;20529;-61
2022/02/26 09:55:04;;;;;;;5.40;3.50;;;4.10;61.90;;;;;;4985286;28;20994;-61
2022/02/26 09:57:30;;;;;;;4.57;2.50;;;4.20;62.20;;;;;;4982996;28;20846;-60
2022/02/26 09:59:55;;;;;;;11.50;3.13;;;4.30;62.20;;;;;;4986809;28;20446;-60
2022/02/26 10:02:33;;;;;;;12.03;3.10;;;4.40;60.90;;;;;;4984506;28;20468;-60
2022/02/26 10:05:01;;;;;;;6.73;2.57;;;4.40;61.40;;;;;;4980037;28;21558;-62
2022/02/26 10:07:27;;;;;;;4.93;2.60;;;4.50;60.00;;;;;;4986139;28;21054;-59
2022/02/26 10:09:55;;;;;;;8.00;3.13;;;4.50;59.50;;;;;;4986849;28;20482;-61
2022/02/26 10:12:27;;;;;;;4.57;2.33;;;4.60;58.60;;;;;;4985182;28;20492;-60
2022/02/26 10:14:58;;;;;;;5.70;3.07;;;4.80;58.80;;;;;;4981461;28;20443;-60
2022/02/26 10:17:26;;;;;;;5.40;2.70;;;4.90;57.60;;;;;;4985781;28;20994;-61
2022/02/26 10:20:12;;;;;;;3.30;2.60;;;5.10;57.10;;;;;;4985202;28;20460;-61
2022/02/26 10:22:41;;;;;;;4.90;2.27;;;5.20;55.50;;;;;;4985023;28;20811;-61
2022/02/26 10:25:10;;;;;;;2.93;2.03;;;5.30;54.70;;;;;;4983024;28;21117;-60
2022/02/26 10:27:44;;;;;;;8.20;2.57;;;5.30;53.40;;;;;;4986699;28;20937;-61
2022/02/26 10:30:14;;;;;;;4.87;3.47;;;5.40;53.60;;;;;;4985774;28;20483;-61
2022/02/26 10:32:41;;;;;;;5.60;2.90;;;5.50;53.40;;;;;;4992571;28;20488;-61
2022/02/26 10:35:08;;;;;;;7.70;3.13;;;5.30;51.00;;;;;;5003282;28;20474;-62
2022/02/26 10:37:34;;;;;;;4.07;2.50;;;5.20;50.60;;;;;;5001688;28;20479;-61
2022/02/26 10:40:00;;;;;;;2.57;2.10;;;5.10;50.50;;;;;;4996271;28;20478;-61
2022/02/26 10:42:31;;;;;;;7.47;2.40;;;5.20;51.20;;;;;;4986142;28;20219;-60
2022/02/26 10:45:08;;;;;;;6.37;2.80;;;5.40;51.10;;;;;;4989843;28;20424;-61
2022/02/26 10:47:36;;;;;;;5.77;2.40;;;5.50;50.00;;;;;;4983721;28;20941;-62
2022/02/26 10:50:14;;;;;;;5.77;2.10;;;5.40;49.20;;;;;;4981796;28;20455;-61
2022/02/26 10:53:00;;;;;;;4.83;2.10;;;5.30;49.10;;;;;;4984640;28;20471;-61
2022/02/26 10:55:48;;;;;;;2.30;2.10;;;5.20;49.50;;;;;;4993867;28;21019;-62
2022/02/26 10:58:21;;;;;;;5.03;2.00;;;5.30;49.70;;;;;;4985766;28;20439;-60
2022/02/26 11:00:47;;;;;;;6.10;2.37;;;5.40;49.70;;;;;;4983666;28;20460;-61
2022/02/26 11:03:13;;;;;;;9.70;2.70;;;5.70;50.20;;;;;;4986495;28;20428;-61
2022/02/26 11:05:39;;;;;;;4.03;2.10;;;6.00;50.00;;;;;;4987322;28;20498;-61
2022/02/26 11:08:05;;;;;;;5.73;2.30;;;6.20;49.90;;;;;;4984021;28;20192;-61
2022/02/26 11:10:32;;;;;;;3.20;2.60;;;6.50;49.60;;;;;;4983320;28;20461;-61
2022/02/26 11:13:00;;;;;;;8.90;2.53;;;6.80;49.80;;;;;;4983760;28;20460;-61
2022/02/26 11:15:28;;;;;;;2.50;2.30;;;7.00;48.70;;;;;;4983685;28;20976;-60
2022/02/26 11:17:55;;;;;;;7.10;3.00;;;7.20;48.30;;;;;;4986307;28;20516;-60
2022/02/26 11:20:26;;;;;;;4.23;2.30;;;7.30;47.20;;;;;;4993734;28;20455;-61
2022/02/26 11:22:56;;;;;;;3.67;2.27;;;7.50;46.30;;;;;;4993355;28;20419;-60
2022/02/26 11:25:27;;;;;;;3.33;2.27;;;7.70;46.30;;;;;;4994596;28;20433;-61
2022/02/26 11:27:53;;;;;;;5.90;2.67;;;8.00;46.30;;;;;;4988759;28;20431;-61
2022/02/26 11:30:25;;;;;;;3.27;2.30;;;8.20;44.50;;;;;;4989942;28;20444;-60
2022/02/26 11:32:51;;;;;;;9.47;2.07;;;8.40;43.80;;;;;;4990970;28;20535;-61
2022/02/26 11:35:24;;;;;;;3.43;2.20;;;8.80;41.90;;;;;;4987837;28;20454;-60
2022/02/26 11:37:52;;;;;;;7.23;2.20;;;9.30;40.40;;;;;;4989670;28;20488;-60
2022/02/26 11:40:18;;;;;;;5.87;2.40;;;9.70;40.60;;;;;;4988473;28;20467;-61
2022/02/26 11:42:44;;;;;;;5.70;2.30;;;10.20;39.00;;;;;;4986293;28;20431;-61
2022/02/26 11:45:13;;;;;;;4.73;2.40;;;10.80;39.90;;;;;;4989894;28;20823;-61
2022/02/26 11:47:59;;;;;;;4.70;2.23;;;11.40;38.60;;;;;;4989910;28;20759;-61
2022/02/26 11:50:40;;;;;;;6.40;2.00;;;11.40;35.10;;;;;;5002951;28;20447;-61
2022/02/26 11:53:16;;;;;;;2.47;2.23;;;10.80;36.20;;;;;;4988430;28;20463;-61
2022/02/26 11:55:47;;;;;;;6.43;2.43;;;10.70;38.00;;;;;;4986265;28;20415;-60
2022/02/26 11:58:19;;;;;;;2.40;2.20;;;10.50;37.80;;;;;;4988539;28;20956;-61
2022/02/26 12:00:49;;;;;;;3.30;2.20;;;10.30;37.60;;;;;;4989767;28;20474;-61
2022/02/26 12:03:24;;;;;;;4.00;2.60;;;10.00;37.60;;;;;;4995945;28;20503;-60
2022/02/26 12:05:55;;;;;;;3.03;2.07;;;9.50;38.10;;;;;;4989021;28;20503;-61
2022/02/26 12:08:38;;;;;;;4.93;2.20;;;8.90;39.00;;;;;;5003705;28;20427;-61
2022/02/26 12:11:06;;;;;;;3.20;2.37;;;9.30;40.80;;;;;;5000842;28;20442;-61
2022/02/26 12:13:40;;;;;;;2.87;1.97;;;9.90;39.00;;;;;;5001792;28;20456;-61
2022/02/26 12:16:21;;;;;;;5.80;2.03;;;10.80;36.50;;;;;;4998311;28;20431;-61
2022/02/26 12:18:54;;;;;;;5.80;2.40;;;11.90;36.60;;;;;;4989799;28;20427;-61
2022/02/26 12:21:20;;;;;;;3.90;2.30;;;12.80;32.50;;;;;;4997037;28;20550;-62
2022/02/26 12:24:06;;;;;;;4.20;2.10;;;13.30;31.70;;;;;;5008154;28;20499;-60
2022/02/26 12:26:44;;;;;;;8.87;2.33;;;14.20;32.50;;;;;;4972884;28;20192;-60
2022/02/26 12:29:20;;;;;;;5.20;2.20;;;15.00;31.80;;;;;;4983770;28;20447;-60
2022/02/26 12:31:55;;;;;;;4.60;2.00;;;15.50;30.30;;;;;;4992379;28;20983;-60
2022/02/26 12:34:21;;;;;;;6.50;2.00;;;15.90;29.80;;;;;;4996543;28;20419;-61
2022/02/26 12:37:10;;;;;;;4.00;1.80;;;16.20;29.30;;;;;;5004555;28;20461;-61
2022/02/26 12:39:40;;;;;;;4.40;2.10;;;16.70;29.20;;;;;;4996872;28;20536;-61
2022/02/26 12:42:08;;;;;;;4.03;1.97;;;17.00;28.60;;;;;;4995275;28;20873;-60
2022/02/26 12:44:40;;;;;;;2.97;1.80;;;17.10;28.70;;;;;;4990678;28;20444;-61
2022/02/26 12:47:07;;;;;;;3.83;2.03;;;16.80;28.30;;;;;;4989729;28;20432;-61
2022/02/26 12:49:33;;;;;;;3.80;2.20;;;16.60;28.40;;;;;;4996585;28;20430;-60
2022/02/26 12:52:00;;;;;;;5.50;2.50;;;16.70;28.30;;;;;;4991322;28;20466;-62
2022/02/26 12:54:31;;;;;;;5.40;2.20;;;16.50;28.00;;;;;;4990718;28;20450;-60